Beauraing, Belgium
Current Conditions -  °F | °C
As of 1:03 PM on Friday 24 Oct 2014 (Local Time) from EBFS Reporting Station
Broken Clouds Broken Clouds  
Wind Chill: 11°   Ceiling: 3500
Heat Index: 11°   Visibility: 6mi
Dew Point:   Wind: 10mph
Humidity: 76%   Direction: 190°S
Pressure: 30.12"   Gusts: NA
Location:  50.11°N, 4.96°E
Report Text: EBFS 241103Z 19009KT 9999 SCT022 BKN035 11/07 Q1020 WHT BLU TEMPO WHT
Loading
Personal Weather Stations






























Interactive Weather Map
Tropical Storm Tracking
New forecast layout! Learn more

10-Day Weather Forecast

Advertisements
Track Severe Weather on mobile